Time;durP1;ratioP1;P1;durP2;ratioP2;P2;SDS_P1;SDS_P2;PMS_P1;PMS_P2;Temp;Humidity;BMP_temperature;BMP_pressure;BME280_temperature;BME280_humidity;BME280_pressure;Samples;Min_cycle;Max_cycle;Signal;HPM_P1;HPM_P2
2022/01/14 00:01:29;;;;;;;50.77;15.20;;;;;0.20;98119.00;;;;8312151;28;20242;-69
2022/01/14 00:05:33;;;;;;;65.80;15.20;;;;;0.20;98127.00;;;;8306379;28;20233;-69
2022/01/14 00:09:39;;;;;;;78.90;17.43;;;;;0.20;98116.00;;;;8307133;28;20264;-69
2022/01/14 00:13:53;;;;;;;93.77;16.87;;;;;0.20;98119.00;;;;8314653;28;20229;-69
2022/01/14 00:17:56;;;;;;;227.80;19.20;;;;;0.20;98100.00;;;;8283974;28;20240;-68
2022/01/14 00:22:04;;;;;;;351.60;23.43;;;;;0.10;98120.00;;;;8290154;28;20276;-68
2022/01/14 00:34:51;;;;;;;178.90;18.37;;;;;0.10;98107.00;;;;8277343;28;20309;-68
2022/01/14 00:38:54;;;;;;;112.23;17.33;;;;;0.20;98116.00;;;;8278222;28;20226;-68
2022/01/14 00:42:58;;;;;;;113.83;17.07;;;;;0.20;98114.00;;;;8279230;28;20252;-69
2022/01/14 00:47:05;;;;;;;206.73;18.30;;;;;0.20;98127.00;;;;8280175;28;20245;-69
2022/01/14 00:51:08;;;;;;;71.43;15.23;;;;;0.20;98128.00;;;;8276024;28;20318;-69
2022/01/14 00:55:14;;;;;;;67.70;14.53;;;;;0.10;98128.00;;;;8279147;28;20363;-68
2022/01/14 00:59:18;;;;;;;49.30;13.97;;;;;0.10;98124.00;;;;8281956;28;20250;-69
2022/01/14 01:03:22;;;;;;;57.57;15.10;;;;;0.10;98115.00;;;;8276292;28;20265;-68
2022/01/14 01:07:28;;;;;;;55.47;15.43;;;;;0.10;98126.00;;;;8277920;28;20736;-68
2022/01/14 01:11:37;;;;;;;49.20;14.43;;;;;0.10;98123.00;;;;8278081;28;20261;-68
2022/01/14 01:15:40;;;;;;;52.30;13.53;;;;;0.00;98120.00;;;;8312081;28;20312;-68
2022/01/14 01:19:46;;;;;;;97.27;16.57;;;;;0.10;98106.00;;;;8311747;28;20310;-68
2022/01/14 01:23:49;;;;;;;77.87;15.33;;;;;0.10;98106.00;;;;8313948;28;20376;-68
2022/01/14 01:27:54;;;;;;;134.97;16.83;;;;;0.00;98107.00;;;;8318023;28;20277;-68
2022/01/14 01:31:57;;;;;;;81.27;15.27;;;;;0.00;98107.00;;;;8320517;28;20336;-68
2022/01/14 01:36:01;;;;;;;91.83;15.30;;;;;-0.10;98104.00;;;;8320412;28;20245;-68
2022/01/14 01:40:06;;;;;;;139.37;16.37;;;;;-0.10;98088.00;;;;8319788;28;20361;-68
2022/01/14 01:44:09;;;;;;;100.50;16.33;;;;;-0.20;98089.00;;;;8319547;28;20269;-68
2022/01/14 01:48:12;;;;;;;105.47;17.53;;;;;-0.20;98081.00;;;;8319002;28;20777;-68
2022/01/14 01:52:17;;;;;;;186.93;18.63;;;;;-0.20;98076.00;;;;8318444;28;20253;-68
2022/01/14 01:56:20;;;;;;;145.73;18.27;;;;;-0.20;98073.00;;;;8318996;28;20649;-68
2022/01/14 02:00:26;;;;;;;144.03;15.73;;;;;-0.20;98064.00;;;;8318069;28;20670;-68
2022/01/14 02:04:30;;;;;;;146.23;17.20;;;;;-0.30;98057.00;;;;8319525;28;20309;-68
2022/01/14 02:08:35;;;;;;;192.37;20.63;;;;;-0.40;98052.00;;;;8317616;28;20623;-68
2022/01/14 02:12:47;;;;;;;86.20;16.43;;;;;-0.50;98040.00;;;;8317770;28;20256;-67
2022/01/14 02:17:16;;;;;;;265.33;17.70;;;;;-0.60;98048.00;;;;8316883;28;20336;-66
2022/01/14 02:25:41;;;;;;;78.47;16.60;;;;;-0.70;98031.00;;;;8317073;28;20839;-66
2022/01/14 02:29:44;;;;;;;68.80;15.33;;;;;-0.70;98018.00;;;;8317918;28;20332;-66
2022/01/14 02:33:47;;;;;;;77.50;15.23;;;;;-0.80;98008.00;;;;8316283;28;20316;-67
2022/01/14 02:37:52;;;;;;;79.90;14.57;;;;;-1.00;98003.00;;;;8317558;28;20678;-67
2022/01/14 02:41:55;;;;;;;121.27;16.80;;;;;-1.20;97999.00;;;;8313751;28;20315;-67
2022/01/14 02:45:58;;;;;;;74.07;17.07;;;;;-1.20;97997.00;;;;8317209;28;20711;-67
2022/01/14 02:50:01;;;;;;;111.83;17.57;;;;;-1.20;97998.00;;;;8309795;28;20236;-66
2022/01/14 02:54:13;;;;;;;151.80;17.73;;;;;-1.20;98000.00;;;;8314654;28;20241;-66
2022/01/14 02:58:18;;;;;;;119.53;16.77;;;;;-1.30;97998.00;;;;8317512;28;20225;-67
2022/01/14 03:02:22;;;;;;;130.90;17.63;;;;;-1.30;97992.00;;;;8359198;22;20307;-66
2022/01/14 03:06:26;;;;;;;93.23;17.73;;;;;-1.30;97968.00;;;;8374694;28;20852;-66
2022/01/14 03:10:31;;;;;;;80.97;17.80;;;;;-1.40;97983.00;;;;8381971;28;20313;-66
2022/01/14 03:14:34;;;;;;;76.67;16.60;;;;;-1.40;97970.00;;;;8382937;28;20888;-66
2022/01/14 03:18:43;;;;;;;65.27;15.80;;;;;-1.50;97970.00;;;;8382249;28;20278;-66
2022/01/14 03:22:53;;;;;;;65.47;14.67;;;;;-1.50;97958.00;;;;8381542;28;20577;-66
2022/01/14 03:26:57;;;;;;;44.97;14.80;;;;;-1.50;97955.00;;;;8379342;28;20918;-66
2022/01/14 03:31:00;;;;;;;59.70;15.83;;;;;-1.60;97958.00;;;;8365093;28;20255;-66
2022/01/14 03:35:04;;;;;;;58.40;14.60;;;;;-1.60;97937.00;;;;8372848;28;20255;-66
2022/01/14 03:39:07;;;;;;;64.00;15.20;;;;;-1.70;97935.00;;;;8346011;28;20709;-66
2022/01/14 03:43:12;;;;;;;60.47;14.63;;;;;-1.70;97927.00;;;;8348897;28;20252;-66
2022/01/14 03:47:15;;;;;;;57.77;15.20;;;;;-1.70;97929.00;;;;8348651;28;20629;-66
2022/01/14 03:51:18;;;;;;;51.27;14.67;;;;;-1.80;97920.00;;;;8346168;28;21839;-66
2022/01/14 03:55:21;;;;;;;54.03;14.67;;;;;-1.80;97903.00;;;;8381210;28;20316;-66
2022/01/14 03:59:26;;;;;;;51.50;14.83;;;;;-1.80;97914.00;;;;8380156;28;20315;-64
2022/01/14 04:03:29;;;;;;;55.40;15.13;;;;;-2.00;97919.00;;;;8375164;28;20691;-64
2022/01/14 04:07:32;;;;;;;47.83;14.10;;;;;-2.00;97919.00;;;;8360493;28;20258;-65
2022/01/14 04:11:36;;;;;;;53.87;16.13;;;;;-2.00;97909.00;;;;8347674;28;20228;-65
2022/01/14 04:15:43;;;;;;;52.87;15.23;;;;;-2.10;97905.00;;;;8375380;28;20323;-65
2022/01/14 04:19:47;;;;;;;50.53;15.40;;;;;-2.10;97921.00;;;;8356716;28;20326;-66
2022/01/14 04:23:50;;;;;;;47.23;14.37;;;;;-2.30;97917.00;;;;8363905;28;20263;-66
2022/01/14 04:27:53;;;;;;;46.43;13.73;;;;;-2.30;97914.00;;;;8372614;28;20344;-66
2022/01/14 04:31:57;;;;;;;49.13;14.20;;;;;-2.30;97922.00;;;;8355704;28;20320;-66
2022/01/14 04:36:02;;;;;;;46.87;13.80;;;;;-2.30;97921.00;;;;8336647;28;20847;-66
2022/01/14 04:40:06;;;;;;;53.90;15.53;;;;;-2.30;97922.00;;;;8363209;28;20390;-66
2022/01/14 04:44:10;;;;;;;47.37;14.20;;;;;-2.40;97930.00;;;;8379841;28;20266;-67
2022/01/14 04:48:14;;;;;;;46.20;13.93;;;;;-2.40;97929.00;;;;8364575;28;20315;-66
2022/01/14 04:52:17;;;;;;;50.67;15.33;;;;;-2.40;97922.00;;;;8366712;28;20643;-66
2022/01/14 04:56:21;;;;;;;44.03;14.43;;;;;-2.40;97917.00;;;;8376589;28;20611;-67
2022/01/14 05:00:25;;;;;;;52.17;14.57;;;;;-2.40;97926.00;;;;8375584;28;20307;-67
2022/01/14 05:04:30;;;;;;;45.00;13.23;;;;;-2.50;97925.00;;;;8372487;28;20822;-65
2022/01/14 05:08:37;;;;;;;42.27;14.07;;;;;-2.60;97928.00;;;;8386314;28;20258;-66
2022/01/14 05:12:40;;;;;;;46.00;15.03;;;;;-2.60;97928.00;;;;8375646;28;20267;-66
2022/01/14 05:16:43;;;;;;;44.70;14.80;;;;;-2.70;97926.00;;;;8379781;28;20224;-65
2022/01/14 05:20:48;;;;;;;45.20;14.80;;;;;-2.70;97931.00;;;;8380981;28;20248;-66
2022/01/14 05:24:51;;;;;;;50.03;14.43;;;;;-2.60;97922.00;;;;8366646;28;20267;-67
2022/01/14 05:28:54;;;;;;;46.40;14.30;;;;;-2.50;97930.00;;;;8373431;28;20255;-67
2022/01/14 05:32:57;;;;;;;48.33;14.20;;;;;-2.50;97935.00;;;;8383902;28;20689;-67
2022/01/14 05:37:03;;;;;;;43.53;13.93;;;;;-2.50;97938.00;;;;8382006;28;20637;-68
2022/01/14 05:41:06;;;;;;;52.10;14.73;;;;;-2.50;97931.00;;;;8378320;28;20247;-66
2022/01/14 05:45:11;;;;;;;49.33;14.73;;;;;-2.40;97933.00;;;;8385267;28;20256;-65
2022/01/14 05:49:14;;;;;;;52.00;14.83;;;;;-2.40;97935.00;;;;8370489;28;20572;-65
2022/01/14 05:53:19;;;;;;;47.33;15.90;;;;;-2.40;97943.00;;;;8378097;28;20322;-66
2022/01/14 05:57:22;;;;;;;59.60;17.73;;;;;-2.30;97938.00;;;;8379684;28;20303;-66
2022/01/14 06:01:25;;;;;;;64.97;19.40;;;;;-2.20;97927.00;;;;8374346;28;20724;-65
2022/01/14 06:05:28;;;;;;;82.07;34.33;;;;;-2.20;97922.00;;;;8372408;28;20323;-65
2022/01/14 06:09:33;;;;;;;63.10;21.70;;;;;-2.20;97915.00;;;;8376474;28;20220;-66
2022/01/14 06:13:37;;;;;;;54.40;17.53;;;;;-2.20;97913.00;;;;8350610;28;20321;-66
2022/01/14 06:17:40;;;;;;;97.10;25.50;;;;;-2.20;97910.00;;;;8346246;28;20311;-66
2022/01/14 06:21:43;;;;;;;73.03;16.10;;;;;-2.20;97898.00;;;;8377764;28;20247;-66
2022/01/14 06:25:48;;;;;;;99.20;19.23;;;;;-2.10;97891.00;;;;8371612;28;20254;-66
2022/01/14 06:29:51;;;;;;;99.87;19.43;;;;;-2.10;97897.00;;;;8369405;28;20318;-67
2022/01/14 06:33:54;;;;;;;155.60;19.83;;;;;-2.10;97896.00;;;;8375642;28;20669;-68
2022/01/14 06:37:59;;;;;;;138.80;17.97;;;;;-2.10;97890.00;;;;8373628;28;20243;-68
2022/01/14 06:42:05;;;;;;;333.27;22.30;;;;;-2.20;97900.00;;;;8377683;28;20265;-68
2022/01/14 06:46:08;;;;;;;262.07;23.43;;;;;-2.30;97892.00;;;;8377793;28;20656;-69
2022/01/14 06:50:12;;;;;;;100.93;18.80;;;;;-2.40;97884.00;;;;8363947;28;20256;-70
2022/01/14 06:54:15;;;;;;;85.03;19.87;;;;;-2.50;97883.00;;;;8368337;28;20254;-68
2022/01/14 06:58:19;;;;;;;81.40;17.73;;;;;-2.60;97876.00;;;;8374753;28;20227;-68
2022/01/14 07:02:22;;;;;;;61.23;16.10;;;;;-2.80;97874.00;;;;8372652;28;20311;-68
2022/01/14 07:06:26;;;;;;;53.70;16.17;;;;;-2.90;97876.00;;;;8372260;28;20312;-68
2022/01/14 07:10:34;;;;;;;49.07;14.80;;;;;-3.00;97872.00;;;;8370315;28;20307;-68
2022/01/14 07:14:39;;;;;;;61.03;15.63;;;;;-3.00;97876.00;;;;8368254;28;20263;-68
2022/01/14 07:18:45;;;;;;;54.30;16.20;;;;;-3.00;97875.00;;;;8377384;28;20724;-68
2022/01/14 07:22:48;;;;;;;47.33;15.20;;;;;-3.10;97888.00;;;;8370748;28;20343;-68
2022/01/14 07:26:53;;;;;;;43.83;14.03;;;;;-3.10;97890.00;;;;8372728;28;20224;-68
2022/01/14 07:30:57;;;;;;;48.73;15.37;;;;;-3.10;97894.00;;;;8366550;28;20336;-68
2022/01/14 07:35:02;;;;;;;56.23;16.87;;;;;-3.10;97896.00;;;;8346654;28;20240;-69
2022/01/14 07:39:06;;;;;;;66.60;17.23;;;;;-3.00;97888.00;;;;8338067;28;20239;-69
2022/01/14 07:43:09;;;;;;;52.63;17.37;;;;;-2.90;97883.00;;;;8360790;28;20349;-67
2022/01/14 07:47:14;;;;;;;57.40;17.90;;;;;-2.80;97894.00;;;;8370125;28;20259;-67
2022/01/14 07:51:17;;;;;;;68.87;22.37;;;;;-2.70;97886.00;;;;8375122;28;20220;-68
2022/01/14 07:55:20;;;;;;;60.07;18.27;;;;;-2.50;97883.00;;;;8372746;28;20677;-68
2022/01/14 07:59:25;;;;;;;82.73;27.97;;;;;-2.40;97879.00;;;;8376387;28;20240;-68
2022/01/14 08:03:30;;;;;;;80.30;25.03;;;;;-2.30;97877.00;;;;8374075;28;20315;-67
2022/01/14 08:07:35;;;;;;;54.33;16.70;;;;;-2.20;97878.00;;;;8369082;28;20743;-67
2022/01/14 08:11:38;;;;;;;56.83;17.07;;;;;-2.10;97873.00;;;;8370577;28;20263;-67
2022/01/14 08:15:41;;;;;;;67.63;20.93;;;;;-2.00;97875.00;;;;8374047;28;20232;-67
2022/01/14 08:19:46;;;;;;;60.67;19.27;;;;;-1.90;97877.00;;;;8371432;28;20232;-67
2022/01/14 08:23:49;;;;;;;63.07;18.80;;;;;-1.70;97878.00;;;;8370775;28;20267;-67
2022/01/14 08:27:52;;;;;;;57.73;18.57;;;;;-1.60;97876.00;;;;8369104;28;20311;-67
2022/01/14 08:31:56;;;;;;;55.43;19.73;;;;;-1.50;97876.00;;;;8376139;28;20303;-67
2022/01/14 08:36:01;;;;;;;73.00;22.53;;;;;-1.40;97889.00;;;;8375176;28;20738;-67
2022/01/14 08:40:06;;;;;;;52.57;16.07;;;;;-1.30;97878.00;;;;8365003;28;20640;-68
2022/01/14 08:44:09;;;;;;;471.27;157.33;;;;;-1.20;97866.00;;;;8369767;28;20778;-68
2022/01/14 08:48:33;;;;;;;74.60;25.27;;;;;-1.00;97882.00;;;;8345438;28;20220;-68
2022/01/14 08:52:37;;;;;;;983.17;321.90;;;;;-0.80;97878.00;;;;8376203;28;20247;-68
2022/01/14 08:56:40;;;;;;;118.80;35.60;;;;;-0.70;97887.00;;;;8375521;28;20262;-68
2022/01/14 09:00:43;;;;;;;223.37;63.53;;;;;-0.50;97888.00;;;;8359376;28;20843;-68
2022/01/14 09:04:47;;;;;;;397.97;121.07;;;;;-0.40;97882.00;;;;8370661;28;20231;-68
2022/01/14 09:08:51;;;;;;;1992.60;570.20;;;;;-0.20;97869.00;;;;8374331;28;20232;-68
2022/01/14 09:12:55;;;;;;;1999.90;824.63;;;;;0.00;97878.00;;;;8371719;28;21040;-68
2022/01/14 09:16:59;;;;;;;1252.77;409.27;;;;;0.10;97880.00;;;;8373077;28;20258;-69
2022/01/14 09:21:02;;;;;;;160.80;53.50;;;;;0.30;97880.00;;;;8369898;28;20225;-68
2022/01/14 09:25:09;;;;;;;1227.10;385.20;;;;;0.40;97890.00;;;;8370139;28;20308;-67
2022/01/14 09:29:12;;;;;;;764.77;238.93;;;;;0.60;97888.00;;;;8370401;28;20259;-68
2022/01/14 09:33:17;;;;;;;1665.33;517.00;;;;;0.70;97892.00;;;;8370067;28;20256;-68
2022/01/14 09:37:21;;;;;;;392.30;108.20;;;;;0.90;97884.00;;;;8364815;28;20255;-68
2022/01/14 09:41:26;;;;;;;237.87;64.23;;;;;0.90;97890.00;;;;8370325;28;20576;-67
2022/01/14 09:45:30;;;;;;;83.33;32.77;;;;;1.10;97885.00;;;;8375546;28;20260;-66
2022/01/14 09:49:33;;;;;;;139.43;72.63;;;;;1.20;97886.00;;;;8379772;28;20263;-68
2022/01/14 09:53:37;;;;;;;65.90;33.20;;;;;1.30;97892.00;;;;8375181;28;20288;-69
2022/01/14 09:57:42;;;;;;;89.03;41.73;;;;;1.40;97895.00;;;;8374739;28;20311;-67
2022/01/14 10:01:46;;;;;;;113.90;59.30;;;;;1.50;97894.00;;;;8379000;28;20252;-67
2022/01/14 10:05:52;;;;;;;290.93;119.47;;;;;1.60;97883.00;;;;8379117;28;20236;-67
2022/01/14 10:09:58;;;;;;;219.07;142.20;;;;;1.80;97884.00;;;;8374293;28;20248;-68
2022/01/14 10:14:07;;;;;;;45.37;19.37;;;;;1.90;97881.00;;;;8371551;28;20361;-68
2022/01/14 10:18:12;;;;;;;43.03;17.43;;;;;2.00;97883.00;;;;8376322;28;20250;-68
2022/01/14 10:22:21;;;;;;;41.97;16.03;;;;;2.10;97861.00;;;;8374571;28;20230;-68
2022/01/14 10:26:26;;;;;;;51.30;17.97;;;;;2.20;97853.00;;;;8369840;28;20301;-68
2022/01/14 10:30:33;;;;;;;63.43;26.40;;;;;2.40;97852.00;;;;8382834;28;20320;-68
2022/01/14 10:34:37;;;;;;;54.63;24.50;;;;;2.40;97848.00;;;;8374007;28;20600;-68
2022/01/14 10:38:46;;;;;;;40.73;16.90;;;;;2.50;97846.00;;;;8367534;28;20262;-68
2022/01/14 10:42:51;;;;;;;42.90;15.47;;;;;2.70;97847.00;;;;8371057;28;20227;-68
2022/01/14 10:47:18;;;;;;;45.37;18.70;;;;;2.80;97849.00;;;;8370102;28;20239;-68
2022/01/14 10:51:21;;;;;;;39.00;15.57;;;;;3.00;97844.00;;;;8381661;28;20230;-69
2022/01/14 10:55:34;;;;;;;48.10;20.43;;;;;3.10;97841.00;;;;8366718;28;20341;-68
2022/01/14 10:59:37;;;;;;;39.23;15.63;;;;;3.30;97838.00;;;;8351022;28;20254;-68
2022/01/14 11:03:44;;;;;;;36.10;14.57;;;;;3.50;97827.00;;;;8370854;28;20247;-68
2022/01/14 11:07:50;;;;;;;35.20;14.43;;;;;3.70;97817.00;;;;8358755;28;20682;-67
2022/01/14 11:11:53;;;;;;;35.73;13.83;;;;;3.90;97820.00;;;;8367919;28;20234;-68
2022/01/14 11:15:56;;;;;;;34.63;14.20;;;;;4.00;97826.00;;;;8366278;28;20250;-67
2022/01/14 11:20:01;;;;;;;36.70;14.73;;;;;4.00;97816.00;;;;8388780;28;20233;-67
2022/01/14 11:24:06;;;;;;;35.90;14.20;;;;;4.10;97821.00;;;;8374536;28;20580;-68
2022/01/14 11:28:10;;;;;;;37.93;15.33;;;;;4.20;97811.00;;;;8367609;28;20331;-68
2022/01/14 11:32:13;;;;;;;37.20;15.20;;;;;4.30;97801.00;;;;8375329;28;20232;-67
2022/01/14 11:36:19;;;;;;;34.37;15.00;;;;;4.40;97809.00;;;;8359107;28;20223;-68
2022/01/14 11:40:22;;;;;;;33.00;14.03;;;;;4.60;97813.00;;;;8373690;28;20279;-68
2022/01/14 11:44:52;;;;;;;61.17;26.27;;;;;4.60;97802.00;;;;8372596;28;20311;-68
2022/01/14 11:48:56;;;;;;;48.00;23.73;;;;;4.70;97791.00;;;;8399315;28;20890;-68
2022/01/14 11:53:02;;;;;;;43.50;19.13;;;;;4.70;97783.00;;;;8408048;28;20306;-69
2022/01/14 11:57:06;;;;;;;35.00;14.77;;;;;4.80;97781.00;;;;8408221;28;20234;-67
2022/01/14 12:01:33;;;;;;;40.90;15.07;;;;;4.70;97775.00;;;;8407748;28;20221;-68
2022/01/14 12:05:38;;;;;;;33.50;14.03;;;;;4.80;97761.00;;;;8401124;28;20238;-68
2022/01/14 12:10:00;;;;;;;35.13;13.53;;;;;4.80;97765.00;;;;8409064;28;20234;-69
2022/01/14 12:14:05;;;;;;;37.20;14.60;;;;;4.80;97754.00;;;;8405876;28;20250;-68
2022/01/14 12:18:13;;;;;;;29.60;11.43;;;;;4.80;97744.00;;;;8404612;28;20224;-68
2022/01/14 12:22:23;;;;;;;29.20;11.07;;;;;4.90;97738.00;;;;8417836;28;20218;-69
2022/01/14 12:26:27;;;;;;;30.13;11.83;;;;;4.90;97747.00;;;;8415100;28;20952;-68
2022/01/14 12:30:30;;;;;;;28.80;12.30;;;;;5.00;97739.00;;;;8402481;28;20234;-68
2022/01/14 12:34:35;;;;;;;29.63;12.97;;;;;4.90;97727.00;;;;8403170;28;20334;-68
2022/01/14 12:38:40;;;;;;;35.07;13.60;;;;;4.90;97725.00;;;;8400379;28;20723;-68
2022/01/14 12:42:52;;;;;;;31.83;13.07;;;;;4.90;97723.00;;;;8406956;28;20345;-67
2022/01/14 12:47:00;;;;;;;24.90;11.20;;;;;4.90;97718.00;;;;8399975;28;20230;-68
2022/01/14 12:51:05;;;;;;;28.53;12.37;;;;;4.90;97708.00;;;;8403754;28;20322;-68
2022/01/14 12:55:10;;;;;;;27.57;11.73;;;;;5.00;97712.00;;;;8410566;28;20236;-67
2022/01/14 12:59:15;;;;;;;26.27;11.97;;;;;5.10;97700.00;;;;8408175;28;20234;-68
2022/01/14 13:03:19;;;;;;;30.90;12.40;;;;;5.20;97696.00;;;;8401447;28;20328;-67
2022/01/14 13:07:27;;;;;;;26.17;11.93;;;;;5.20;97687.00;;;;8408672;28;20227;-67
2022/01/14 13:11:30;;;;;;;27.30;11.40;;;;;5.30;97681.00;;;;8404403;28;20239;-67
2022/01/14 13:15:35;;;;;;;27.47;11.20;;;;;5.30;97674.00;;;;8408318;28;20360;-67
2022/01/14 13:19:39;;;;;;;24.17;10.93;;;;;5.40;97672.00;;;;8411360;28;20712;-67
2022/01/14 13:23:46;;;;;;;25.27;10.83;;;;;5.50;97669.00;;;;8413397;28;20247;-67
2022/01/14 13:27:51;;;;;;;27.23;11.57;;;;;5.60;97677.00;;;;8410402;28;21849;-69
2022/01/14 13:31:56;;;;;;;25.07;12.60;;;;;5.60;97668.00;;;;8411975;28;20254;-67
2022/01/14 13:36:00;;;;;;;28.90;12.10;;;;;5.60;97674.00;;;;8413568;28;20242;-66
2022/01/14 13:40:07;;;;;;;23.60;10.50;;;;;5.60;97664.00;;;;8415969;28;20254;-67
2022/01/14 13:44:17;;;;;;;24.13;10.87;;;;;5.50;97663.00;;;;8407846;28;20228;-66
2022/01/14 13:48:24;;;;;;;22.30;10.23;;;;;5.50;97664.00;;;;8409195;28;20245;-67
2022/01/14 13:52:31;;;;;;;19.37;9.90;;;;;5.50;97664.00;;;;8404618;28;20231;-66
2022/01/14 13:56:36;;;;;;;20.97;9.50;;;;;5.50;97670.00;;;;8410511;28;20257;-66
2022/01/14 14:00:41;;;;;;;18.67;9.70;;;;;5.40;97666.00;;;;8414856;28;20258;-65
2022/01/14 14:04:47;;;;;;;25.73;10.67;;;;;5.40;97669.00;;;;8407271;28;20227;-65
2022/01/14 14:09:00;;;;;;;24.23;10.23;;;;;5.50;97661.00;;;;8414675;28;20263;-63
2022/01/14 14:13:18;;;;;;;22.13;10.17;;;;;5.50;97669.00;;;;8410706;28;20246;-63
2022/01/14 14:17:21;;;;;;;20.87;10.40;;;;;5.60;97666.00;;;;8411021;28;20752;-63
2022/01/14 14:21:28;;;;;;;26.40;11.27;;;;;5.70;97669.00;;;;8407364;28;20250;-64
2022/01/14 14:25:40;;;;;;;21.10;10.23;;;;;5.80;97672.00;;;;8415059;28;20673;-64
2022/01/14 14:29:48;;;;;;;23.57;9.93;;;;;5.70;97674.00;;;;8413713;28;20227;-63
2022/01/14 14:33:51;;;;;;;22.63;10.63;;;;;5.70;97660.00;;;;8407515;28;20224;-65
2022/01/14 14:37:56;;;;;;;24.87;11.47;;;;;5.60;97674.00;;;;8413529;28;20250;-63
2022/01/14 14:41:59;;;;;;;22.70;10.60;;;;;5.60;97677.00;;;;8415067;28;20258;-64
2022/01/14 14:46:03;;;;;;;25.43;11.90;;;;;5.50;97676.00;;;;8403889;28;20250;-64
2022/01/14 14:50:08;;;;;;;29.40;11.73;;;;;5.40;97673.00;;;;8400503;28;20329;-64
2022/01/14 14:54:13;;;;;;;34.73;14.67;;;;;5.30;97677.00;;;;8414882;28;20262;-65
2022/01/14 14:58:16;;;;;;;29.27;12.43;;;;;5.30;97678.00;;;;8406731;28;20231;-66
2022/01/14 15:02:19;;;;;;;32.97;13.27;;;;;5.10;97685.00;;;;8410978;28;20688;-66
2022/01/14 15:06:23;;;;;;;27.33;12.23;;;;;5.00;97677.00;;;;8407016;28;20312;-66
2022/01/14 15:10:27;;;;;;;33.27;12.93;;;;;4.80;97691.00;;;;8415795;28;20236;-66
2022/01/14 15:14:31;;;;;;;34.63;14.07;;;;;4.60;97688.00;;;;8409353;28;20226;-65
2022/01/14 15:18:34;;;;;;;30.57;13.57;;;;;4.30;97679.00;;;;8412443;28;20334;-72
2022/01/14 15:22:37;;;;;;;30.50;13.03;;;;;4.00;97680.00;;;;8408998;28;20307;-65
2022/01/14 15:26:43;;;;;;;36.90;14.77;;;;;3.60;97674.00;;;;8408572;28;20310;-65
2022/01/14 15:30:46;;;;;;;37.90;14.00;;;;;3.20;97664.00;;;;8408100;28;20299;-65
2022/01/14 15:34:49;;;;;;;40.10;14.40;;;;;2.90;97660.00;;;;8402868;28;20659;-65
2022/01/14 15:38:53;;;;;;;35.57;14.63;;;;;2.70;97649.00;;;;8414160;28;20232;-64
2022/01/14 15:42:57;;;;;;;36.43;14.77;;;;;2.50;97646.00;;;;8415943;28;20230;-64
2022/01/14 15:47:01;;;;;;;34.93;14.47;;;;;2.30;97651.00;;;;8403713;28;20659;-65
2022/01/14 15:51:14;;;;;;;45.43;16.13;;;;;2.10;97652.00;;;;8400490;28;20233;-64
2022/01/14 15:55:17;;;;;;;43.83;16.33;;;;;1.80;97647.00;;;;8414752;28;20333;-65
2022/01/14 15:59:21;;;;;;;44.33;16.27;;;;;1.70;97643.00;;;;8402371;28;20253;-65
2022/01/14 16:03:25;;;;;;;47.77;18.03;;;;;1.60;97637.00;;;;8407594;28;20316;-65
2022/01/14 16:07:28;;;;;;;56.83;19.60;;;;;1.50;97628.00;;;;8403078;28;20223;-65
2022/01/14 16:11:31;;;;;;;45.63;17.57;;;;;1.40;97617.00;;;;8411518;28;20233;-66
2022/01/14 16:15:36;;;;;;;51.97;16.70;;;;;1.30;97621.00;;;;8407875;28;20336;-66
2022/01/14 16:19:41;;;;;;;53.57;16.13;;;;;1.00;97637.00;;;;8410745;28;20224;-67
2022/01/14 16:23:44;;;;;;;66.63;20.70;;;;;0.80;97643.00;;;;8409574;28;20788;-66
2022/01/14 16:27:48;;;;;;;54.17;17.33;;;;;0.70;97650.00;;;;8405525;28;20744;-66
2022/01/14 16:31:52;;;;;;;54.30;17.77;;;;;0.50;97654.00;;;;8403037;28;20742;-66
2022/01/14 16:35:58;;;;;;;60.43;19.97;;;;;0.50;97654.00;;;;8406993;28;20617;-65
2022/01/14 16:40:02;;;;;;;55.93;19.20;;;;;0.40;97651.00;;;;8410434;28;20825;-67
2022/01/14 16:44:05;;;;;;;63.40;20.60;;;;;0.30;97653.00;;;;8408515;28;20225;-67
2022/01/14 16:48:10;;;;;;;57.90;18.97;;;;;0.20;97653.00;;;;8403968;28;20726;-68
2022/01/14 16:52:13;;;;;;;68.27;20.77;;;;;0.20;97664.00;;;;8408313;28;20230;-68
2022/01/14 16:56:16;;;;;;;65.57;23.10;;;;;0.20;97655.00;;;;8397340;28;20321;-69
2022/01/14 17:00:20;;;;;;;54.37;19.13;;;;;0.30;97660.00;;;;8407663;28;20262;-70
2022/01/14 17:04:25;;;;;;;59.13;20.93;;;;;0.20;97677.00;;;;8411594;28;20791;-72
2022/01/14 17:08:28;;;;;;;68.57;21.07;;;;;0.00;97667.00;;;;8409946;28;20260;-69
2022/01/14 17:12:34;;;;;;;72.83;24.30;;;;;0.10;97667.00;;;;8402831;28;20228;-70
2022/01/14 17:16:38;;;;;;;68.47;21.83;;;;;0.20;97661.00;;;;8406986;28;20331;-69
2022/01/14 17:20:42;;;;;;;56.00;20.97;;;;;0.30;97646.00;;;;8408899;28;21066;-70
2022/01/14 17:24:46;;;;;;;55.60;21.43;;;;;0.20;97663.00;;;;8412641;28;20320;-70
2022/01/14 17:28:51;;;;;;;60.40;21.97;;;;;0.00;97660.00;;;;8417417;28;20245;-69
2022/01/14 17:32:54;;;;;;;65.47;21.60;;;;;-0.30;97670.00;;;;8413371;28;20271;-70
2022/01/14 17:36:59;;;;;;;71.27;24.17;;;;;-0.40;97662.00;;;;8404025;28;20263;-70
2022/01/14 17:41:02;;;;;;;67.80;22.67;;;;;-0.50;97660.00;;;;8386328;28;20240;-69
2022/01/14 17:50:37;;;;;;;65.77;22.53;;;;;-0.70;97635.00;;;;8398278;28;20221;-70
2022/01/14 17:55:16;;;;;;;66.93;22.33;;;;;-0.70;97642.00;;;;8398876;28;20258;-70
2022/01/14 17:59:50;;;;;;;53.77;20.53;;;;;-0.80;97635.00;;;;8397790;28;20227;-71
2022/01/14 18:09:09;;;;;;;61.50;21.90;;;;;-1.00;97643.00;;;;8396688;28;20567;-67
2022/01/14 18:13:18;;;;;;;60.17;21.63;;;;;-1.10;97645.00;;;;8397593;28;20696;-68
2022/01/14 18:17:48;;;;;;;80.70;25.57;;;;;-1.20;97634.00;;;;8396438;28;20271;-69
2022/01/14 18:21:51;;;;;;;61.70;20.27;;;;;-1.10;97633.00;;;;8398213;28;20609;-69
2022/01/14 18:25:54;;;;;;;65.87;23.63;;;;;-1.20;97641.00;;;;8397996;28;20560;-69
2022/01/14 18:30:33;;;;;;;63.77;21.60;;;;;-1.20;97642.00;;;;8397469;28;20601;-69
2022/01/14 18:35:07;;;;;;;65.43;22.03;;;;;-1.40;97638.00;;;;8396999;28;20223;-68
2022/01/14 18:39:44;;;;;;;70.27;23.33;;;;;-1.50;97633.00;;;;8396576;28;20244;-68
2022/01/14 18:44:20;;;;;;;67.00;23.83;;;;;-1.50;97647.00;;;;8397391;28;20212;-68
2022/01/14 18:48:26;;;;;;;62.73;22.50;;;;;-1.60;97640.00;;;;8396440;28;20216;-68
2022/01/14 18:52:29;;;;;;;69.60;23.53;;;;;-1.70;97646.00;;;;8397462;28;20243;-67
2022/01/14 18:56:32;;;;;;;69.00;24.57;;;;;-1.70;97644.00;;;;8396729;28;20251;-67
2022/01/14 19:00:35;;;;;;;64.43;23.87;;;;;-1.80;97644.00;;;;8397410;28;20236;-67
2022/01/14 19:10:10;;;;;;;71.07;24.23;;;;;-2.00;97644.00;;;;8396433;28;20266;-67
2022/01/14 19:14:48;;;;;;;66.33;24.60;;;;;-2.00;97653.00;;;;8395914;28;20629;-66
2022/01/14 19:18:51;;;;;;;74.13;24.67;;;;;-1.90;97646.00;;;;8396216;28;20247;-68
2022/01/14 19:22:55;;;;;;;76.33;25.03;;;;;-1.80;97637.00;;;;8395549;28;20243;-67
2022/01/14 19:27:32;;;;;;;83.53;25.80;;;;;-1.90;97625.00;;;;8395993;28;20243;-67
2022/01/14 19:32:04;;;;;;;73.20;23.73;;;;;-1.80;97632.00;;;;8395538;28;20649;-66
2022/01/14 19:36:46;;;;;;;74.53;25.90;;;;;-1.80;97626.00;;;;8396237;28;20216;-67
2022/01/14 19:41:20;;;;;;;70.23;24.50;;;;;-1.70;97629.00;;;;8395059;28;20320;-67
2022/01/14 19:45:58;;;;;;;68.23;22.33;;;;;-1.70;97625.00;;;;8395224;28;20239;-67
2022/01/14 19:50:02;;;;;;;61.03;22.40;;;;;-1.90;97632.00;;;;8395657;28;20294;-67
2022/01/14 19:54:37;;;;;;;66.17;22.30;;;;;-2.00;97623.00;;;;8393804;28;20227;-67
2022/01/14 19:59:11;;;;;;;65.63;22.93;;;;;-2.10;97624.00;;;;8395021;28;20572;-67
2022/01/14 20:03:16;;;;;;;78.13;25.63;;;;;-2.10;97623.00;;;;8394236;28;20259;-67
2022/01/14 20:07:50;;;;;;;81.30;26.90;;;;;-2.10;97619.00;;;;8395597;28;20224;-68
2022/01/14 20:12:28;;;;;;;72.67;24.57;;;;;-2.10;97620.00;;;;8394684;28;20223;-68
2022/01/14 20:17:02;;;;;;;55.23;21.10;;;;;-2.20;97620.00;;;;8395019;28;20608;-68
2022/01/14 20:21:06;;;;;;;68.57;24.83;;;;;-2.30;97621.00;;;;8394900;28;20227;-69
2022/01/14 20:25:11;;;;;;;71.80;23.37;;;;;-2.20;97597.00;;;;8394279;28;20243;-68
2022/01/14 20:29:47;;;;;;;64.93;22.90;;;;;-2.20;97594.00;;;;8395036;28;20247;-67
2022/01/14 20:34:20;;;;;;;69.57;23.40;;;;;-2.10;97603.00;;;;8393411;28;20211;-69
2022/01/14 20:38:24;;;;;;;72.53;25.13;;;;;-1.90;97600.00;;;;8393885;28;20255;-69